Terminal Aerodrome Forecast
Issued by NWS St Louis, MO

Home | Current Version | Previous Version | Graphics & Text | Print | Product List | Glossary Off
Versions: 1 2 3 4 5 6 7 8 9 10 11 12 13 14 15 16 17 18 19 20 21 22 23 24 25 26 27 28 29 30 31 32

000
FTUS43 KLSX 061400 AAA
TAFSTL
TAF AMD
KSTL 061458Z 0615/0718 17009KT P6SM SKC
     FM061600 19012G20KT P6SM SCT100
     FM070000 21009KT P6SM SCT120
     FM071500 24011KT P6SM SCT120=

USA.gov is the U.S. government's official web portal to all federal, state and local government web resources and services.